Time;durP1;ratioP1;P1;durP2;ratioP2;P2;SDS_P1;SDS_P2;PMS_P1;PMS_P2;Temp;Humidity;BMP_temperature;BMP_pressure;BME280_temperature;BME280_humidity;BME280_pressure;Samples;Min_cycle;Max_cycle;Signal;HPM_P1;HPM_P2
2022/06/14 00:03:03;;;;;;;8.00;3.67;;;12.50;99.90;;;;;;5089936;28;20039;-61
2022/06/14 00:05:29;;;;;;;9.57;4.53;;;12.50;99.90;;;;;;5079154;28;20024;-61
2022/06/14 00:07:56;;;;;;;7.28;4.32;;;12.60;99.90;;;;;;5089737;28;20461;-62
2022/06/14 00:10:21;;;;;;;9.23;4.70;;;12.60;99.90;;;;;;5088990;28;20028;-62
2022/06/14 00:12:47;;;;;;;8.98;4.50;;;12.50;99.90;;;;;;5088004;28;20534;-61
2022/06/14 00:15:13;;;;;;;7.38;4.40;;;12.40;99.90;;;;;;5090140;28;20429;-61
2022/06/14 00:17:39;;;;;;;11.98;4.10;;;12.40;99.90;;;;;;5078761;28;20051;-61
2022/06/14 00:20:05;;;;;;;7.90;4.53;;;12.40;99.90;;;;;;5076826;28;20056;-62
2022/06/14 00:22:33;;;;;;;10.38;4.78;;;12.30;99.90;;;;;;5084300;28;20022;-61
2022/06/14 00:24:59;;;;;;;8.77;4.22;;;12.30;99.90;;;;;;5081834;28;20025;-62
2022/06/14 00:27:25;;;;;;;8.82;4.50;;;12.30;99.90;;;;;;5085192;28;20475;-62
2022/06/14 00:29:51;;;;;;;10.00;4.20;;;12.30;99.90;;;;;;5083797;28;20044;-62
2022/06/14 00:32:16;;;;;;;10.35;4.10;;;12.30;99.90;;;;;;5077966;28;20032;-62
2022/06/14 00:34:42;;;;;;;7.85;4.07;;;12.30;99.90;;;;;;5079508;28;20495;-62
2022/06/14 00:37:16;;;;;;;7.47;4.43;;;12.30;99.90;;;;;;5086715;28;20049;-62
2022/06/14 00:39:42;;;;;;;8.38;4.22;;;12.20;99.90;;;;;;5088732;28;20539;-62
2022/06/14 00:42:20;;;;;;;7.75;4.13;;;12.00;99.90;;;;;;5087845;28;20035;-62
2022/06/14 00:45:06;;;;;;;9.02;4.68;;;11.90;99.90;;;;;;5085718;28;20025;-62
2022/06/14 00:47:46;;;;;;;7.95;4.15;;;11.90;99.90;;;;;;5070352;28;20108;-61
2022/06/14 00:50:25;;;;;;;10.07;4.30;;;11.90;99.90;;;;;;5079128;28;20035;-62
2022/06/14 00:53:07;;;;;;;9.55;4.47;;;11.90;99.90;;;;;;5069894;28;20111;-62
2022/06/14 00:55:43;;;;;;;7.72;4.60;;;11.90;99.90;;;;;;5080952;28;20479;-61
2022/06/14 00:58:09;;;;;;;8.38;4.30;;;11.90;99.90;;;;;;5088827;28;20137;-62
2022/06/14 01:00:40;;;;;;;9.23;4.43;;;12.00;99.90;;;;;;5089773;28;20064;-64
2022/06/14 01:03:14;;;;;;;9.15;4.60;;;11.90;99.90;;;;;;5072639;28;20497;-61
2022/06/14 01:06:05;;;;;;;10.02;4.57;;;11.90;99.90;;;;;;5082560;28;20093;-63
2022/06/14 01:08:36;;;;;;;10.38;4.90;;;11.90;99.90;;;;;;5070004;28;20162;-61
2022/06/14 01:11:04;;;;;;;9.07;4.57;;;11.80;99.90;;;;;;5084442;28;20024;-61
2022/06/14 01:13:30;;;;;;;9.27;4.90;;;11.80;99.90;;;;;;5090169;28;20051;-62
2022/06/14 01:15:56;;;;;;;7.47;4.28;;;11.70;99.90;;;;;;5089774;28;20103;-61
2022/06/14 01:18:25;;;;;;;11.95;4.78;;;11.50;99.90;;;;;;5068612;28;20039;-61
2022/06/14 01:20:51;;;;;;;10.80;4.68;;;11.50;99.90;;;;;;5083684;28;20506;-62
2022/06/14 01:23:17;;;;;;;8.00;4.28;;;11.40;99.90;;;;;;5089997;28;20032;-61
2022/06/14 01:25:48;;;;;;;9.43;4.55;;;11.40;99.90;;;;;;5088577;28;20536;-62
2022/06/14 01:28:16;;;;;;;10.73;4.10;;;11.30;99.90;;;;;;5088127;28;20051;-61
2022/06/14 01:30:48;;;;;;;8.50;4.03;;;11.30;99.90;;;;;;5078820;28;20044;-62
2022/06/14 01:33:15;;;;;;;10.55;4.22;;;11.30;99.90;;;;;;5075741;28;20032;-61
2022/06/14 01:35:45;;;;;;;8.50;4.05;;;11.30;99.90;;;;;;5089201;28;20035;-62
2022/06/14 01:38:14;;;;;;;7.70;4.50;;;11.20;99.90;;;;;;5077776;28;20040;-61
2022/06/14 01:40:58;;;;;;;9.05;4.70;;;11.30;99.90;;;;;;5080239;28;20317;-63
2022/06/14 01:43:46;;;;;;;10.52;4.40;;;11.30;99.90;;;;;;5078855;28;20944;-62
2022/06/14 01:46:16;;;;;;;10.07;4.50;;;11.30;99.90;;;;;;5086017;28;20130;-62
2022/06/14 01:48:48;;;;;;;9.65;4.43;;;11.20;99.90;;;;;;5084912;28;20450;-62
2022/06/14 01:52:13;;;;;;;11.57;4.80;;;11.20;99.90;;;;;;5087293;28;20438;-61
2022/06/14 01:54:43;;;;;;;10.00;4.95;;;11.10;99.90;;;;;;5074805;28;20048;-61
2022/06/14 01:57:15;;;;;;;10.07;5.10;;;11.10;99.90;;;;;;5089446;28;20464;-61
2022/06/14 01:59:45;;;;;;;8.43;4.85;;;11.10;99.90;;;;;;5084360;28;20035;-63
2022/06/14 02:02:25;;;;;;;10.10;5.05;;;11.10;99.90;;;;;;5085084;28;20028;-61
2022/06/14 02:05:11;;;;;;;9.45;4.97;;;11.20;99.90;;;;;;5087235;28;20456;-61
2022/06/14 02:07:55;;;;;;;8.60;4.78;;;11.20;99.90;;;;;;5086740;28;20040;-61
2022/06/14 02:10:42;;;;;;;8.48;4.40;;;11.30;99.90;;;;;;5086450;28;20028;-61
2022/06/14 02:13:07;;;;;;;12.90;5.38;;;11.10;99.90;;;;;;5082781;28;20028;-62
2022/06/14 02:15:46;;;;;;;10.82;5.68;;;11.10;99.90;;;;;;5076864;28;20403;-61
2022/06/14 02:18:28;;;;;;;12.13;4.80;;;11.10;99.90;;;;;;5074556;28;20468;-61
2022/06/14 02:21:06;;;;;;;9.90;5.00;;;11.10;99.90;;;;;;5087528;28;20020;-62
2022/06/14 02:23:37;;;;;;;10.35;5.10;;;11.10;99.90;;;;;;5090062;28;20097;-61
2022/06/14 02:26:13;;;;;;;8.50;4.70;;;11.10;99.90;;;;;;5086742;28;20024;-60
2022/06/14 02:28:47;;;;;;;10.57;5.25;;;11.10;99.90;;;;;;5088871;28;20467;-62
2022/06/14 02:31:31;;;;;;;9.95;4.65;;;11.10;99.90;;;;;;5079243;28;20122;-62
2022/06/14 02:34:05;;;;;;;8.13;4.78;;;11.10;99.90;;;;;;5075150;28;20491;-61
2022/06/14 02:36:35;;;;;;;14.70;4.85;;;11.10;99.90;;;;;;5071552;28;20024;-62
2022/06/14 02:39:27;;;;;;;8.95;4.32;;;11.10;99.90;;;;;;5077058;28;20119;-61
2022/06/14 02:42:28;;;;;;;7.47;4.25;;;11.10;99.90;;;;;;5070182;28;20115;-62
2022/06/14 02:45:06;;;;;;;6.45;3.88;;;11.10;99.90;;;;;;5056173;28;20123;-62
2022/06/14 02:48:02;;;;;;;10.95;5.20;;;11.10;99.90;;;;;;5083919;28;20043;-61
2022/06/14 02:50:44;;;;;;;8.10;4.43;;;11.10;99.90;;;;;;5080270;28;20044;-61
2022/06/14 02:53:29;;;;;;;12.52;4.93;;;11.00;99.90;;;;;;5088532;28;20059;-61
2022/06/14 02:56:15;;;;;;;9.57;4.72;;;11.00;99.90;;;;;;5081614;28;20511;-62
2022/06/14 02:59:18;;;;;;;12.63;4.65;;;10.90;99.90;;;;;;5073994;28;20034;-62
2022/06/14 03:01:51;;;;;;;7.85;4.68;;;10.80;99.90;;;;;;5057516;28;20226;-62
2022/06/14 03:04:21;;;;;;;11.43;4.65;;;10.70;99.90;;;;;;5082534;28;20042;-62
2022/06/14 03:06:58;;;;;;;8.52;4.45;;;10.60;99.90;;;;;;5082251;28;20043;-61
2022/06/14 03:09:31;;;;;;;7.25;4.72;;;10.50;99.90;;;;;;5087959;28;20396;-62
2022/06/14 03:12:05;;;;;;;10.00;4.18;;;10.40;99.90;;;;;;5087542;28;20125;-62
2022/06/14 03:14:56;;;;;;;8.15;4.72;;;10.40;99.90;;;;;;5087866;28;20078;-61
2022/06/14 03:17:45;;;;;;;9.57;5.97;;;10.40;99.90;;;;;;5087096;28;20020;-61
2022/06/14 03:20:17;;;;;;;9.63;4.70;;;10.40;99.90;;;;;;5090946;28;20119;-62
2022/06/14 03:23:08;;;;;;;7.55;4.07;;;10.50;99.90;;;;;;5069699;28;20478;-62
2022/06/14 03:26:01;;;;;;;9.52;4.47;;;10.50;99.90;;;;;;5090653;28;20032;-61
2022/06/14 03:28:53;;;;;;;9.95;5.03;;;10.50;99.90;;;;;;5090581;28;20052;-61
2022/06/14 03:31:45;;;;;;;12.15;5.75;;;10.60;99.90;;;;;;5092149;28;20036;-61
2022/06/14 03:34:35;;;;;;;9.05;4.82;;;10.40;99.90;;;;;;5091873;28;20081;-62
2022/06/14 03:37:02;;;;;;;9.77;4.70;;;10.30;99.90;;;;;;5091368;28;20104;-62
2022/06/14 03:39:35;;;;;;;10.50;4.93;;;10.40;99.90;;;;;;5091958;28;20036;-61
2022/06/14 03:42:03;;;;;;;10.20;5.10;;;10.40;99.90;;;;;;5107309;28;20028;-61
2022/06/14 03:44:30;;;;;;;10.13;4.72;;;10.40;99.90;;;;;;5090289;28;20085;-62
2022/06/14 03:47:20;;;;;;;11.10;4.80;;;10.20;99.90;;;;;;5091429;28;20035;-62
2022/06/14 03:49:55;;;;;;;14.90;4.55;;;10.10;99.90;;;;;;5091763;28;20463;-62
2022/06/14 03:52:51;;;;;;;8.85;4.55;;;10.10;99.90;;;;;;5091765;28;20512;-61
2022/06/14 03:55:23;;;;;;;9.15;4.82;;;10.20;99.90;;;;;;5089548;28;20490;-61
2022/06/14 03:58:16;;;;;;;8.95;4.88;;;10.30;99.90;;;;;;5098833;28;20027;-62
2022/06/14 04:01:00;;;;;;;10.00;4.80;;;10.30;99.90;;;;;;5090554;28;20039;-62
2022/06/14 04:03:35;;;;;;;9.55;4.57;;;10.10;99.90;;;;;;5091453;28;20032;-62
2022/06/14 04:06:27;;;;;;;12.95;5.03;;;10.10;99.90;;;;;;5090718;28;20028;-61
2022/06/14 04:09:10;;;;;;;9.77;4.57;;;10.30;99.90;;;;;;5090243;28;20024;-62
2022/06/14 04:11:47;;;;;;;9.55;5.30;;;10.50;99.90;;;;;;5091353;28;20032;-62
2022/06/14 04:14:31;;;;;;;11.00;5.68;;;10.50;99.90;;;;;;5095577;28;20059;-62
2022/06/14 04:17:10;;;;;;;10.90;5.38;;;10.60;99.90;;;;;;5103333;28;20107;-61
2022/06/14 04:19:54;;;;;;;9.18;5.00;;;10.70;99.90;;;;;;5087349;28;20043;-62
2022/06/14 04:22:47;;;;;;;9.55;5.15;;;10.90;99.90;;;;;;5085966;28;20032;-62
2022/06/14 04:25:28;;;;;;;9.60;4.95;;;11.00;99.90;;;;;;5087952;28;20028;-62
2022/06/14 04:28:17;;;;;;;10.88;5.20;;;11.10;99.90;;;;;;5071265;28;20052;-62
2022/06/14 04:30:58;;;;;;;9.05;5.22;;;11.30;99.90;;;;;;5081067;28;20032;-62
2022/06/14 04:33:33;;;;;;;10.15;5.57;;;11.40;99.90;;;;;;5085197;28;21806;-61
2022/06/14 04:36:13;;;;;;;11.85;5.15;;;11.40;99.90;;;;;;5088069;28;20029;-62
2022/06/14 04:38:47;;;;;;;8.93;5.10;;;11.50;99.90;;;;;;5081586;28;20039;-61
2022/06/14 04:41:21;;;;;;;10.98;5.05;;;11.50;99.90;;;;;;5078152;28;20293;-62
2022/06/14 04:43:57;;;;;;;9.30;4.60;;;11.70;99.90;;;;;;5076689;28;20032;-62
2022/06/14 04:46:39;;;;;;;11.07;5.38;;;11.70;99.90;;;;;;5078479;28;20035;-62
2022/06/14 04:49:36;;;;;;;10.25;5.35;;;11.60;99.90;;;;;;5092331;28;20040;-62
2022/06/14 04:52:25;;;;;;;8.50;4.88;;;11.70;99.90;;;;;;5090187;28;20036;-61
2022/06/14 04:55:14;;;;;;;11.35;5.28;;;11.80;99.90;;;;;;5082639;28;20043;-62
2022/06/14 04:57:46;;;;;;;10.23;4.90;;;11.90;99.90;;;;;;5089362;28;20051;-62
2022/06/14 05:00:17;;;;;;;8.77;4.93;;;11.70;99.90;;;;;;5091786;28;20032;-61
2022/06/14 05:02:55;;;;;;;;;;;11.90;99.90;;;;;;5088704;28;20128;-62
2022/06/14 05:05:38;;;;;;;7.53;4.80;;;12.10;99.90;;;;;;5082978;28;19907;-62
2022/06/14 05:08:16;;;;;;;8.23;5.07;;;12.40;99.90;;;;;;5085622;28;20037;-62
2022/06/14 05:11:25;;;;;;;11.32;5.05;;;12.60;99.90;;;;;;5089038;28;20038;-62
2022/06/14 05:14:02;;;;;;;8.90;5.20;;;12.80;99.90;;;;;;5088211;28;20051;-63
2022/06/14 05:16:57;;;;;;;8.32;5.40;;;12.90;99.90;;;;;;5082576;28;20028;-62
2022/06/14 05:19:49;;;;;;;8.18;5.38;;;13.00;99.90;;;;;;5074290;28;20044;-62
2022/06/14 05:22:54;;;;;;;9.63;5.05;;;12.90;99.90;;;;;;5077611;28;20032;-62
2022/06/14 05:25:20;;;;;;;13.40;6.10;;;13.20;99.90;;;;;;5066387;28;20051;-62
2022/06/14 05:27:52;;;;;;;15.15;6.07;;;13.50;99.90;;;;;;5081567;28;20559;-62
2022/06/14 05:30:35;;;;;;;11.60;5.53;;;13.50;99.90;;;;;;5082697;28;20043;-62
2022/06/14 05:33:24;;;;;;;11.68;5.97;;;13.60;99.90;;;;;;5078463;28;20034;-62
2022/06/14 05:36:12;;;;;;;14.38;6.63;;;13.80;99.90;;;;;;5068290;28;20463;-63
2022/06/14 05:38:45;;;;;;;13.80;6.50;;;13.90;99.90;;;;;;5085698;28;20028;-62
2022/06/14 05:41:32;;;;;;;15.88;6.43;;;14.00;99.90;;;;;;5085018;28;20117;-62
2022/06/14 05:44:10;;;;;;;13.05;6.50;;;14.20;99.90;;;;;;5088748;28;20039;-82
2022/06/14 05:46:48;;;;;;;16.15;7.00;;;14.40;99.90;;;;;;5082376;28;20333;-76
2022/06/14 05:49:24;;;;;;;14.68;7.00;;;14.60;99.90;;;;;;5080246;28;20058;-80
2022/06/14 05:51:56;;;;;;;14.02;7.00;;;14.80;99.90;;;;;;5087976;28;20036;-76
2022/06/14 05:54:31;;;;;;;14.38;6.75;;;15.00;99.90;;;;;;5082653;28;20067;-78
2022/06/14 05:57:16;;;;;;;12.93;7.25;;;15.00;99.90;;;;;;5085466;28;20040;-76
2022/06/14 05:59:54;;;;;;;14.85;6.32;;;15.20;99.90;;;;;;5088269;28;20036;-77
2022/06/14 06:02:27;;;;;;;16.27;6.88;;;15.30;99.90;;;;;;5088584;28;20032;-74
2022/06/14 06:05:00;;;;;;;13.32;7.00;;;15.50;99.90;;;;;;5087491;28;20426;-68
2022/06/14 06:07:35;;;;;;;13.57;7.30;;;15.60;99.90;;;;;;5087366;28;20032;-75
2022/06/14 06:10:25;;;;;;;15.07;7.22;;;15.90;99.90;;;;;;5084179;28;20036;-76
2022/06/14 06:13:09;;;;;;;14.27;7.40;;;16.10;99.90;;;;;;5080926;28;20762;-75
2022/06/14 06:15:41;;;;;;;14.88;7.05;;;16.20;99.90;;;;;;5089952;28;20282;-76
2022/06/14 06:18:23;;;;;;;15.40;7.40;;;16.30;99.90;;;;;;5086571;28;20515;-75
2022/06/14 06:21:16;;;;;;;16.15;7.82;;;16.40;99.90;;;;;;5087070;28;20201;-74
2022/06/14 06:23:57;;;;;;;16.33;7.25;;;16.50;99.90;;;;;;5084497;28;20060;-74
2022/06/14 06:26:29;;;;;;;14.00;7.30;;;16.60;99.90;;;;;;5075427;28;20032;-73
2022/06/14 06:29:04;;;;;;;13.73;6.93;;;16.90;99.90;;;;;;5080871;28;20049;-75
2022/06/14 06:31:32;;;;;;;14.55;6.88;;;17.10;99.90;;;;;;5085398;28;20036;-73
2022/06/14 06:34:02;;;;;;;15.63;7.45;;;17.30;99.90;;;;;;5067784;28;20127;-75
2022/06/14 06:37:06;;;;;;;12.45;7.30;;;17.40;99.90;;;;;;5086422;28;20451;-72
2022/06/14 06:39:43;;;;;;;15.90;7.60;;;17.60;99.90;;;;;;5088284;28;20114;-75
2022/06/14 06:42:53;;;;;;;16.55;7.38;;;17.60;99.90;;;;;;5087440;28;20484;-74
2022/06/14 06:45:25;;;;;;;12.50;6.70;;;17.80;99.90;;;;;;5089691;28;20039;-76
2022/06/14 06:48:19;;;;;;;15.15;7.40;;;18.00;99.90;;;;;;5088504;28;20069;-75
2022/06/14 06:50:52;;;;;;;14.25;7.03;;;18.10;99.90;;;;;;5088687;28;20067;-74
2022/06/14 06:53:20;;;;;;;14.75;6.50;;;18.20;99.90;;;;;;5085600;28;20028;-74
2022/06/14 06:56:08;;;;;;;15.98;7.28;;;18.30;99.90;;;;;;5088687;28;20051;-75
2022/06/14 06:58:46;;;;;;;12.65;6.82;;;18.30;99.90;;;;;;5088775;28;20089;-74
2022/06/14 07:01:24;;;;;;;14.27;6.85;;;18.50;99.90;;;;;;5088252;28;20036;-74
2022/06/14 07:04:11;;;;;;;15.52;7.80;;;18.70;99.90;;;;;;5092838;28;20097;-75
2022/06/14 07:06:44;;;;;;;14.25;7.10;;;18.80;99.90;;;;;;5092788;28;20032;-74
2022/06/14 07:09:12;;;;;;;18.65;7.13;;;19.00;99.90;;;;;;5093171;28;20073;-74
2022/06/14 07:11:46;;;;;;;12.25;6.78;;;19.20;99.90;;;;;;5091273;28;20039;-74
2022/06/14 07:14:34;;;;;;;13.93;6.38;;;19.10;99.90;;;;;;5091803;28;20111;-75
2022/06/14 07:17:19;;;;;;;11.13;6.30;;;19.40;99.90;;;;;;5091731;28;20020;-77
2022/06/14 07:19:54;;;;;;;11.15;5.60;;;19.60;99.90;;;;;;5070817;28;20152;-75
2022/06/14 07:22:52;;;;;;;16.20;6.13;;;19.80;99.90;;;;;;5070620;28;20063;-74
2022/06/14 07:25:40;;;;;;;11.63;6.22;;;20.00;99.90;;;;;;5071093;28;20221;-74
2022/06/14 07:28:15;;;;;;;15.18;6.45;;;19.90;99.90;;;;;;5070754;28;20052;-75
2022/06/14 07:30:49;;;;;;;9.55;6.00;;;20.00;99.90;;;;;;5072034;28;20060;-74
2022/06/14 07:33:17;;;;;;;12.25;6.43;;;20.10;99.90;;;;;;5079998;28;20072;-74
2022/06/14 07:35:54;;;;;;;10.68;6.10;;;19.90;99.90;;;;;;5088914;28;20461;-75
2022/06/14 07:38:38;;;;;;;13.00;6.20;;;20.00;99.90;;;;;;5080071;28;20044;-73
2022/06/14 07:41:34;;;;;;;10.68;5.50;;;20.10;99.90;;;;;;5081906;28;20025;-75
2022/06/14 07:44:18;;;;;;;14.43;5.88;;;20.00;99.90;;;;;;5071308;28;20037;-75
2022/06/14 07:47:11;;;;;;;10.88;5.38;;;20.20;99.90;;;;;;5074885;28;20037;-74
2022/06/14 07:49:57;;;;;;;12.50;5.72;;;20.30;99.90;;;;;;5072068;28;20074;-74
2022/06/14 07:52:27;;;;;;;9.88;5.60;;;20.50;99.90;;;;;;5071351;28;20029;-74
2022/06/14 07:54:58;;;;;;;11.32;5.43;;;20.50;99.90;;;;;;5089694;28;20038;-73
2022/06/14 07:57:31;;;;;;;9.68;5.95;;;20.60;99.90;;;;;;5091566;28;20034;-73
2022/06/14 08:02:58;;;;;;;15.07;5.60;;;20.50;99.90;;;;;;5090920;28;20039;-76
2022/06/14 08:05:26;;;;;;;;;;;20.90;99.90;;;;;;5071148;28;20037;-74
2022/06/14 08:07:55;;;;;;;10.98;4.65;;;21.30;99.90;;;;;;5076003;28;19908;-74
2022/06/14 08:10:26;;;;;;;9.40;4.72;;;21.60;99.90;;;;;;5091564;28;20040;-74
2022/06/14 08:13:00;;;;;;;9.30;4.60;;;21.70;99.60;;;;;;5090437;28;20029;-74
2022/06/14 08:15:35;;;;;;;12.82;5.10;;;21.80;99.90;;;;;;5090980;28;20117;-75
2022/06/14 08:18:10;;;;;;;8.18;4.68;;;21.70;98.30;;;;;;5090673;28;20020;-76
2022/06/14 08:20:39;;;;;;;10.73;5.25;;;21.90;97.70;;;;;;5091332;28;20028;-73
2022/06/14 08:23:13;;;;;;;14.85;5.20;;;22.00;96.60;;;;;;5090032;28;20024;-75
2022/06/14 08:25:43;;;;;;;12.57;5.55;;;21.80;94.00;;;;;;5090869;28;20481;-74
2022/06/14 08:28:35;;;;;;;14.75;5.57;;;21.80;96.90;;;;;;5088391;28;20051;-73
2022/06/14 08:31:17;;;;;;;14.77;5.43;;;21.80;95.70;;;;;;5090609;28;20067;-76
2022/06/14 08:33:57;;;;;;;11.73;4.70;;;21.70;96.90;;;;;;5090734;28;20021;-74
2022/06/14 08:36:28;;;;;;;9.17;4.90;;;21.90;95.30;;;;;;5090340;28;20028;-74
2022/06/14 08:38:59;;;;;;;10.30;4.30;;;22.30;95.40;;;;;;5092449;28;20436;-73
2022/06/14 08:41:24;;;;;;;;;;;22.20;92.50;;;;;;5090686;28;20020;-73
2022/06/14 08:43:55;;;;;;;12.80;4.78;;;22.30;93.90;;;;;;5090722;28;19916;-74
2022/06/14 08:46:20;;;;;;;;;;;22.40;94.30;;;;;;5090542;28;20802;-74
2022/06/14 08:48:55;;;;;;;12.65;5.28;;;22.60;92.90;;;;;;5089222;28;19915;-74
2022/06/14 08:51:41;;;;;;;13.85;4.80;;;22.70;91.80;;;;;;5089760;28;20890;-74
2022/06/14 08:54:48;;;;;;;9.43;4.60;;;22.80;91.20;;;;;;5080746;28;20157;-73
2022/06/14 08:57:54;;;;;;;11.15;4.13;;;22.90;90.60;;;;;;5089203;28;20028;-74
2022/06/14 09:00:57;;;;;;;13.45;4.18;;;22.80;90.20;;;;;;5088282;28;20039;-74
2022/06/14 09:03:38;;;;;;;15.45;4.07;;;22.80;79.00;;;;;;5089398;28;20117;-73
2022/06/14 09:06:24;;;;;;;;;;;22.70;82.90;;;;;;5090649;28;20031;-76
2022/06/14 09:09:30;;;;;;;9.60;4.40;;;22.90;86.30;;;;;;5089675;28;19919;-75
2022/06/14 09:12:18;;;;;;;9.32;3.90;;;23.00;87.70;;;;;;5090334;28;20547;-74
2022/06/14 09:14:53;;;;;;;14.98;4.10;;;23.00;87.70;;;;;;5089706;28;20036;-75
2022/06/14 09:17:45;;;;;;;8.02;4.05;;;22.90;84.20;;;;;;5089528;28;20039;-74
2022/06/14 09:20:35;;;;;;;9.13;4.13;;;22.90;81.90;;;;;;5089465;28;20042;-74
2022/06/14 09:23:10;;;;;;;6.80;3.58;;;23.10;83.40;;;;;;5088910;28;20038;-75
2022/06/14 09:25:57;;;;;;;6.40;4.03;;;23.30;79.80;;;;;;5086969;28;20032;-73
2022/06/14 09:28:53;;;;;;;10.90;4.22;;;23.20;75.60;;;;;;5088777;28;20185;-73
2022/06/14 09:31:44;;;;;;;8.90;3.78;;;23.30;77.60;;;;;;5087776;28;20123;-73
2022/06/14 09:34:28;;;;;;;;;;;23.30;75.80;;;;;;5089169;28;20114;-74
2022/06/14 09:37:11;;;;;;;12.55;4.05;;;23.70;79.30;;;;;;5088165;28;19908;-73
2022/06/14 09:39:36;;;;;;;6.80;3.63;;;23.50;76.90;;;;;;5089809;28;20028;-73
2022/06/14 09:42:11;;;;;;;16.35;4.10;;;23.40;72.60;;;;;;5090010;28;20035;-73
2022/06/14 09:44:58;;;;;;;10.73;4.40;;;23.80;84.10;;;;;;5089851;28;20028;-73
2022/06/14 09:47:48;;;;;;;8.52;3.53;;;23.70;79.60;;;;;;5088955;28;20467;-73
2022/06/14 09:50:40;;;;;;;10.38;4.13;;;23.70;74.60;;;;;;5088466;28;20032;-73
2022/06/14 09:53:28;;;;;;;8.30;4.28;;;23.40;79.60;;;;;;5090874;28;20036;-75
2022/06/14 09:56:02;;;;;;;9.18;4.65;;;23.50;75.90;;;;;;5089817;28;20503;-73
2022/06/14 09:59:00;;;;;;;9.35;3.95;;;23.70;80.70;;;;;;5088868;28;20052;-72
2022/06/14 10:01:45;;;;;;;12.73;4.75;;;23.80;74.60;;;;;;5087162;28;20115;-72
2022/06/14 10:04:24;;;;;;;8.55;4.78;;;23.80;74.10;;;;;;5088070;28;20039;-74
2022/06/14 10:07:02;;;;;;;8.98;4.53;;;23.50;76.10;;;;;;5089284;28;20035;-74
2022/06/14 10:09:36;;;;;;;9.07;4.47;;;23.30;75.50;;;;;;5086398;28;20101;-73
2022/06/14 10:12:19;;;;;;;8.30;4.30;;;23.50;80.90;;;;;;5089264;28;20047;-73
2022/06/14 10:15:01;;;;;;;8.52;4.03;;;23.80;80.50;;;;;;5088778;28;20079;-74
2022/06/14 10:17:52;;;;;;;14.15;4.78;;;24.30;76.20;;;;;;5087108;28;20696;-73
2022/06/14 10:20:34;;;;;;;10.32;5.00;;;24.40;68.80;;;;;;5088345;28;20043;-73
2022/06/14 10:23:05;;;;;;;7.28;4.28;;;24.50;68.20;;;;;;5087756;28;20039;-72
2022/06/14 10:29:06;;;;;;;10.90;4.38;;;23.70;70.90;;;;;;5087767;28;20078;-73
2022/06/14 10:31:41;;;;;;;9.05;4.63;;;23.90;71.90;;;;;;5088106;28;20114;-72
2022/06/14 10:34:33;;;;;;;10.43;4.50;;;23.90;67.60;;;;;;5089062;28;20054;-73
2022/06/14 10:37:24;;;;;;;9.32;4.10;;;23.80;70.30;;;;;;5087711;28;20043;-73
2022/06/14 10:40:08;;;;;;;10.23;4.63;;;24.30;71.00;;;;;;5088691;28;20039;-72
2022/06/14 10:42:55;;;;;;;9.70;4.05;;;24.60;67.50;;;;;;5088196;28;20028;-71
2022/06/14 10:45:33;;;;;;;5.95;3.72;;;24.20;62.50;;;;;;5088255;28;20491;-73
2022/06/14 10:48:31;;;;;;;8.73;4.18;;;24.10;63.40;;;;;;5089201;28;20028;-72
2022/06/14 10:51:20;;;;;;;12.80;4.63;;;24.20;64.40;;;;;;5088487;28;20119;-72
2022/06/14 10:54:11;;;;;;;8.93;3.93;;;24.50;65.50;;;;;;5091170;28;20032;-72
2022/06/14 10:57:11;;;;;;;8.10;3.70;;;24.40;59.60;;;;;;5087859;28;20215;-71
2022/06/14 10:59:40;;;;;;;;;;;24.20;59.50;;;;;;5083393;28;20139;-72
2022/06/14 11:02:14;;;;;;;6.95;3.75;;;24.40;66.40;;;;;;5088426;28;19914;-71
2022/06/14 11:05:21;;;;;;;7.95;4.05;;;24.50;58.40;;;;;;5088671;28;20024;-73
2022/06/14 11:08:28;;;;;;;7.25;3.53;;;24.80;65.90;;;;;;5087803;28;20078;-72
2022/06/14 11:11:13;;;;;;;7.28;3.70;;;25.20;61.20;;;;;;5088591;28;20036;-72
2022/06/14 11:14:00;;;;;;;5.47;3.70;;;24.90;62.70;;;;;;5087606;28;20063;-72
2022/06/14 11:16:46;;;;;;;7.90;3.60;;;25.10;59.90;;;;;;5087825;28;20024;-71
2022/06/14 11:19:30;;;;;;;6.50;3.10;;;25.30;62.70;;;;;;5087978;28;20063;-76
2022/06/14 11:22:39;;;;;;;5.78;3.45;;;25.30;59.00;;;;;;5088435;28;20050;-72
2022/06/14 11:25:28;;;;;;;6.18;3.58;;;25.70;57.90;;;;;;5084954;28;20396;-72
2022/06/14 11:28:19;;;;;;;7.63;3.63;;;26.20;58.90;;;;;;5088115;28;20047;-72
2022/06/14 11:30:53;;;;;;;;;;;26.40;61.30;;;;;;5088190;28;20052;-73
2022/06/14 11:33:49;;;;;;;10.88;4.00;;;26.50;56.40;;;;;;5086193;28;19961;-71
2022/06/14 11:36:37;;;;;;;10.50;4.20;;;25.80;54.60;;;;;;5087419;28;20038;-75
2022/06/14 11:39:11;;;;;;;8.10;3.65;;;25.60;56.00;;;;;;5067558;28;20495;-71
2022/06/14 11:41:44;;;;;;;7.05;3.60;;;25.70;55.80;;;;;;5067693;28;20020;-70
2022/06/14 11:44:30;;;;;;;9.02;3.92;;;25.70;58.90;;;;;;5070850;28;20032;-72
2022/06/14 11:47:05;;;;;;;7.95;3.83;;;25.90;61.50;;;;;;5087998;28;20077;-71
2022/06/14 11:49:39;;;;;;;6.95;4.07;;;26.40;59.70;;;;;;5089317;28;20539;-72
2022/06/14 11:52:18;;;;;;;9.18;4.43;;;26.80;56.20;;;;;;5090698;28;20027;-71
2022/06/14 11:55:01;;;;;;;7.15;4.28;;;27.10;57.10;;;;;;5090724;28;20040;-71
2022/06/14 11:57:41;;;;;;;7.80;4.30;;;27.50;58.70;;;;;;5090932;28;20042;-71
2022/06/14 12:00:38;;;;;;;8.15;4.15;;;26.90;54.70;;;;;;5091671;28;20537;-71
2022/06/14 12:03:51;;;;;;;7.93;3.80;;;26.80;58.10;;;;;;5090823;28;20064;-71
2022/06/14 12:06:39;;;;;;;7.53;4.20;;;27.10;60.20;;;;;;5076242;28;20040;-75
2022/06/14 12:09:32;;;;;;;8.65;4.05;;;27.30;55.50;;;;;;5091259;28;20032;-72
2022/06/14 12:12:07;;;;;;;8.18;3.75;;;27.40;56.40;;;;;;5091226;28;20037;-72
2022/06/14 12:15:08;;;;;;;7.47;3.85;;;27.30;54.60;;;;;;5090693;28;20059;-72
2022/06/14 12:17:46;;;;;;;6.65;3.80;;;27.10;55.70;;;;;;5090635;28;20028;-71
2022/06/14 12:20:15;;;;;;;7.43;4.30;;;26.80;55.40;;;;;;5091379;28;20039;-71
2022/06/14 12:23:02;;;;;;;8.90;4.65;;;26.40;52.80;;;;;;5090051;28;20139;-71
2022/06/14 12:28:44;;;;;;;8.82;4.35;;;26.50;54.70;;;;;;5088402;28;20074;-70
2022/06/14 12:31:21;;;;;;;6.57;4.10;;;26.50;57.70;;;;;;5089598;28;20160;-71
2022/06/14 12:33:52;;;;;;;8.13;4.13;;;26.40;55.10;;;;;;5090121;28;20623;-71
2022/06/14 12:36:30;;;;;;;10.10;4.60;;;26.00;54.80;;;;;;5079952;28;20128;-74
2022/06/14 12:39:02;;;;;;;9.38;4.18;;;26.20;57.00;;;;;;5085474;28;20025;-71
2022/06/14 12:41:39;;;;;;;7.80;4.35;;;26.00;56.00;;;;;;5090190;28;20059;-71
2022/06/14 12:44:05;;;;;;;10.50;4.15;;;26.30;57.90;;;;;;5090667;28;20020;-71
2022/06/14 12:46:38;;;;;;;6.18;4.15;;;26.50;57.60;;;;;;5089949;28;20565;-71
2022/06/14 12:49:25;;;;;;;6.40;4.28;;;26.80;56.20;;;;;;5090731;28;20468;-71
2022/06/14 12:51:59;;;;;;;10.15;4.75;;;26.40;54.30;;;;;;5089718;28;20034;-71
2022/06/14 12:54:31;;;;;;;7.07;4.53;;;26.10;56.10;;;;;;5089685;28;20035;-71
2022/06/14 12:57:11;;;;;;;10.15;4.63;;;26.10;57.40;;;;;;5089898;28;20051;-71
2022/06/14 12:59:56;;;;;;;11.13;4.95;;;26.30;58.60;;;;;;5089393;28;20744;-71
2022/06/14 13:02:28;;;;;;;7.55;4.30;;;26.50;59.80;;;;;;5088496;28;20028;-71
2022/06/14 13:05:11;;;;;;;9.40;4.60;;;26.60;58.40;;;;;;5090430;28;20545;-70
2022/06/14 13:07:50;;;;;;;8.32;4.15;;;26.40;57.50;;;;;;5089183;28;20028;-71
2022/06/14 13:10:41;;;;;;;7.77;4.40;;;26.50;60.20;;;;;;5090324;28;20078;-71
2022/06/14 13:13:35;;;;;;;7.47;4.05;;;26.70;57.40;;;;;;5090614;28;20028;-71
2022/06/14 13:16:17;;;;;;;9.15;4.15;;;27.20;53.90;;;;;;5085004;28;20563;-70
2022/06/14 13:19:18;;;;;;;7.97;3.90;;;27.20;53.90;;;;;;5089707;28;20035;-71
2022/06/14 13:22:17;;;;;;;5.45;3.92;;;27.00;56.10;;;;;;5085943;28;20561;-71
2022/06/14 13:25:04;;;;;;;8.07;4.28;;;26.90;55.60;;;;;;5087475;28;20028;-71
2022/06/14 13:28:06;;;;;;;7.32;4.25;;;26.80;56.10;;;;;;5088619;28;20052;-71
2022/06/14 13:31:05;;;;;;;7.13;3.90;;;27.20;57.10;;;;;;5088981;28;20046;-70
2022/06/14 13:34:13;;;;;;;8.40;4.80;;;27.20;53.10;;;;;;5074843;28;20096;-71
2022/06/14 13:37:10;;;;;;;7.60;4.47;;;26.60;55.50;;;;;;5088973;28;20137;-71
2022/06/14 13:40:01;;;;;;;8.15;4.60;;;26.20;56.00;;;;;;5088757;28;20035;-70
2022/06/14 13:42:31;;;;;;;6.13;4.35;;;26.00;55.60;;;;;;5088953;28;20447;-70
2022/06/14 13:45:19;;;;;;;8.68;4.57;;;25.80;54.70;;;;;;5089637;28;20036;-70
2022/06/14 13:48:20;;;;;;;11.38;4.57;;;26.00;56.50;;;;;;5088250;28;20036;-71
2022/06/14 13:50:57;;;;;;;7.72;4.68;;;26.50;59.70;;;;;;5060633;28;20056;-70
2022/06/14 13:53:39;;;;;;;7.68;4.15;;;26.50;56.40;;;;;;5067467;28;20038;-74
2022/06/14 13:56:43;;;;;;;11.40;4.45;;;26.50;56.10;;;;;;5069439;28;20028;-71
2022/06/14 13:59:18;;;;;;;8.77;4.72;;;26.70;57.30;;;;;;5045336;28;20041;-70
2022/06/14 14:01:58;;;;;;;8.40;4.78;;;26.50;57.60;;;;;;5081292;28;20819;-70
2022/06/14 14:04:49;;;;;;;20.13;4.95;;;26.70;62.30;;;;;;5088599;28;20032;-73
2022/06/14 14:07:21;;;;;;;10.85;4.65;;;26.70;58.10;;;;;;5089248;28;20107;-71